sensor_id;sensor_type;location;lat;lon;timestamp;temperature;humidity
21035;DHT22;10676;50.848;3.272;2023-03-23T00:02:25;13.50;99.90
21035;DHT22;10676;50.848;3.272;2023-03-23T00:04:52;13.50;99.90
21035;DHT22;10676;50.848;3.272;2023-03-23T00:07:19;13.50;99.90
21035;DHT22;10676;50.848;3.272;2023-03-23T00:09:49;13.40;99.90
21035;DHT22;10676;50.848;3.272;2023-03-23T00:12:22;13.30;99.90
21035;DHT22;10676;50.848;3.272;2023-03-23T00:14:55;13.30;99.90
21035;DHT22;10676;50.848;3.272;2023-03-23T00:17:20;13.30;99.90
21035;DHT22;10676;50.848;3.272;2023-03-23T00:19:46;13.20;99.90
21035;DHT22;10676;50.848;3.272;2023-03-23T00:22:17;13.20;99.90
21035;DHT22;10676;50.848;3.272;2023-03-23T00:24:45;13.10;99.90
21035;DHT22;10676;50.848;3.272;2023-03-23T00:27:11;13.10;99.90
21035;DHT22;10676;50.848;3.272;2023-03-23T00:29:40;13.00;99.90
21035;DHT22;10676;50.848;3.272;2023-03-23T00:32:08;13.00;99.90
21035;DHT22;10676;50.848;3.272;2023-03-23T00:34:38;13.00;99.90
21035;DHT22;10676;50.848;3.272;2023-03-23T00:37:07;12.90;99.90
21035;DHT22;10676;50.848;3.272;2023-03-23T00:39:33;12.90;99.90
21035;DHT22;10676;50.848;3.272;2023-03-23T00:42:03;12.90;99.90
21035;DHT22;10676;50.848;3.272;2023-03-23T00:44:30;12.90;99.90
21035;DHT22;10676;50.848;3.272;2023-03-23T00:46:56;13.00;99.90
21035;DHT22;10676;50.848;3.272;2023-03-23T00:49:23;13.00;99.90
21035;DHT22;10676;50.848;3.272;2023-03-23T00:51:53;13.00;99.90
21035;DHT22;10676;50.848;3.272;2023-03-23T00:54:19;13.10;99.90
21035;DHT22;10676;50.848;3.272;2023-03-23T00:56:45;13.10;99.90
21035;DHT22;10676;50.848;3.272;2023-03-23T00:59:11;13.10;99.90
21035;DHT22;10676;50.848;3.272;2023-03-23T01:01:36;13.10;99.90
21035;DHT22;10676;50.848;3.272;2023-03-23T01:04:03;13.20;99.90
21035;DHT22;10676;50.848;3.272;2023-03-23T01:06:37;13.20;99.90
21035;DHT22;10676;50.848;3.272;2023-03-23T01:09:15;13.20;99.90
21035;DHT22;10676;50.848;3.272;2023-03-23T01:11:43;13.20;99.90
21035;DHT22;10676;50.848;3.272;2023-03-23T01:14:10;13.10;99.90
21035;DHT22;10676;50.848;3.272;2023-03-23T01:16:35;13.10;99.90
21035;DHT22;10676;50.848;3.272;2023-03-23T01:19:01;13.10;99.90
21035;DHT22;10676;50.848;3.272;2023-03-23T01:21:27;13.00;99.90
21035;DHT22;10676;50.848;3.272;2023-03-23T01:23:52;13.10;99.90
21035;DHT22;10676;50.848;3.272;2023-03-23T01:26:25;13.00;99.90
21035;DHT22;10676;50.848;3.272;2023-03-23T01:28:51;13.00;99.90
21035;DHT22;10676;50.848;3.272;2023-03-23T01:31:19;13.00;99.90
21035;DHT22;10676;50.848;3.272;2023-03-23T01:33:46;13.00;99.90
21035;DHT22;10676;50.848;3.272;2023-03-23T01:36:18;13.00;99.90
21035;DHT22;10676;50.848;3.272;2023-03-23T01:38:46;13.00;99.90
21035;DHT22;10676;50.848;3.272;2023-03-23T01:41:13;13.10;99.90
21035;DHT22;10676;50.848;3.272;2023-03-23T01:46:25;13.10;99.90
21035;DHT22;10676;50.848;3.272;2023-03-23T01:48:51;13.10;99.90
21035;DHT22;10676;50.848;3.272;2023-03-23T01:51:18;13.10;99.90
21035;DHT22;10676;50.848;3.272;2023-03-23T01:53:53;13.10;99.90
21035;DHT22;10676;50.848;3.272;2023-03-23T01:56:22;13.10;99.90
21035;DHT22;10676;50.848;3.272;2023-03-23T01:58:55;13.20;99.90
21035;DHT22;10676;50.848;3.272;2023-03-23T02:01:22;13.20;99.90
21035;DHT22;10676;50.848;3.272;2023-03-23T02:03:52;13.20;99.90
21035;DHT22;10676;50.848;3.272;2023-03-23T02:06:20;13.20;99.90
21035;DHT22;10676;50.848;3.272;2023-03-23T02:08:49;13.20;99.90
21035;DHT22;10676;50.848;3.272;2023-03-23T02:11:17;13.30;99.90
21035;DHT22;10676;50.848;3.272;2023-03-23T02:13:43;13.30;99.90
21035;DHT22;10676;50.848;3.272;2023-03-23T02:24:48;13.30;99.90
21035;DHT22;10676;50.848;3.272;2023-03-23T02:27:55;13.30;99.90
21035;DHT22;10676;50.848;3.272;2023-03-23T02:30:37;13.30;99.90
21035;DHT22;10676;50.848;3.272;2023-03-23T02:36:28;13.30;99.90
21035;DHT22;10676;50.848;3.272;2023-03-23T02:39:03;13.30;99.90
21035;DHT22;10676;50.848;3.272;2023-03-23T02:41:36;13.30;99.90
21035;DHT22;10676;50.848;3.272;2023-03-23T02:44:04;13.30;99.90
21035;DHT22;10676;50.848;3.272;2023-03-23T02:46:31;13.30;99.90
21035;DHT22;10676;50.848;3.272;2023-03-23T02:48:58;13.40;99.90
21035;DHT22;10676;50.848;3.272;2023-03-23T02:51:26;13.40;99.90
21035;DHT22;10676;50.848;3.272;2023-03-23T02:53:55;13.40;99.90
21035;DHT22;10676;50.848;3.272;2023-03-23T02:56:23;13.40;99.90
21035;DHT22;10676;50.848;3.272;2023-03-23T02:58:50;13.40;99.90
21035;DHT22;10676;50.848;3.272;2023-03-23T03:04:14;13.40;99.90
21035;DHT22;10676;50.848;3.272;2023-03-23T03:12:55;13.30;99.90
21035;DHT22;10676;50.848;3.272;2023-03-23T03:15:12;13.30;99.90
21035;DHT22;10676;50.848;3.272;2023-03-23T03:17:53;13.30;99.90
21035;DHT22;10676;50.848;3.272;2023-03-23T03:20:24;13.30;99.90
21035;DHT22;10676;50.848;3.272;2023-03-23T03:22:52;13.30;99.90
21035;DHT22;10676;50.848;3.272;2023-03-23T03:25:19;13.30;99.90
21035;DHT22;10676;50.848;3.272;2023-03-23T03:27:47;13.30;99.90
21035;DHT22;10676;50.848;3.272;2023-03-23T03:30:17;13.30;99.90
21035;DHT22;10676;50.848;3.272;2023-03-23T03:32:51;13.30;99.90
21035;DHT22;10676;50.848;3.272;2023-03-23T03:35:20;13.40;99.90
21035;DHT22;10676;50.848;3.272;2023-03-23T03:37:46;13.40;99.90
21035;DHT22;10676;50.848;3.272;2023-03-23T03:40:15;13.40;99.90
21035;DHT22;10676;50.848;3.272;2023-03-23T03:42:43;13.40;99.90
21035;DHT22;10676;50.848;3.272;2023-03-23T03:45:12;13.40;99.90
21035;DHT22;10676;50.848;3.272;2023-03-23T03:47:38;13.40;99.90
21035;DHT22;10676;50.848;3.272;2023-03-23T03:50:05;13.40;99.90
21035;DHT22;10676;50.848;3.272;2023-03-23T03:52:31;13.40;99.90
21035;DHT22;10676;50.848;3.272;2023-03-23T03:54:57;13.40;99.90
21035;DHT22;10676;50.848;3.272;2023-03-23T03:57:23;13.30;99.90
21035;DHT22;10676;50.848;3.272;2023-03-23T03:59:49;13.30;99.90
21035;DHT22;10676;50.848;3.272;2023-03-23T04:02:16;13.30;99.90
21035;DHT22;10676;50.848;3.272;2023-03-23T04:04:46;13.20;99.90
21035;DHT22;10676;50.848;3.272;2023-03-23T04:07:12;13.30;99.90
21035;DHT22;10676;50.848;3.272;2023-03-23T04:09:39;13.20;99.90
21035;DHT22;10676;50.848;3.272;2023-03-23T04:12:05;13.20;99.90
21035;DHT22;10676;50.848;3.272;2023-03-23T04:14:31;13.20;99.90
21035;DHT22;10676;50.848;3.272;2023-03-23T04:16:57;13.20;99.90
21035;DHT22;10676;50.848;3.272;2023-03-23T04:19:24;13.10;99.90
21035;DHT22;10676;50.848;3.272;2023-03-23T04:21:50;13.10;99.90
21035;DHT22;10676;50.848;3.272;2023-03-23T04:24:16;13.10;99.90
21035;DHT22;10676;50.848;3.272;2023-03-23T04:26:42;13.00;99.90
21035;DHT22;10676;50.848;3.272;2023-03-23T04:29:10;13.00;99.90
21035;DHT22;10676;50.848;3.272;2023-03-23T04:31:35;13.00;99.90
21035;DHT22;10676;50.848;3.272;2023-03-23T04:34:01;12.90;99.90
21035;DHT22;10676;50.848;3.272;2023-03-23T04:36:28;12.70;99.90
21035;DHT22;10676;50.848;3.272;2023-03-23T04:38:55;12.60;99.90
21035;DHT22;10676;50.848;3.272;2023-03-23T04:41:22;12.50;99.90
21035;DHT22;10676;50.848;3.272;2023-03-23T04:43:48;12.40;99.90
21035;DHT22;10676;50.848;3.272;2023-03-23T04:46:18;12.20;99.90
21035;DHT22;10676;50.848;3.272;2023-03-23T04:48:45;12.10;99.90
21035;DHT22;10676;50.848;3.272;2023-03-23T04:51:11;12.00;99.90
21035;DHT22;10676;50.848;3.272;2023-03-23T04:53:40;12.00;99.90
21035;DHT22;10676;50.848;3.272;2023-03-23T04:56:06;11.90;99.90
21035;DHT22;10676;50.848;3.272;2023-03-23T04:58:32;11.90;99.90
21035;DHT22;10676;50.848;3.272;2023-03-23T05:01:01;11.90;99.90
21035;DHT22;10676;50.848;3.272;2023-03-23T05:03:26;12.00;99.90
21035;DHT22;10676;50.848;3.272;2023-03-23T05:05:53;11.90;99.90
21035;DHT22;10676;50.848;3.272;2023-03-23T05:08:23;11.80;99.90
21035;DHT22;10676;50.848;3.272;2023-03-23T05:10:56;11.50;99.90
21035;DHT22;10676;50.848;3.272;2023-03-23T05:13:23;11.40;99.90
21035;DHT22;10676;50.848;3.272;2023-03-23T05:15:48;11.30;99.90
21035;DHT22;10676;50.848;3.272;2023-03-23T05:18:15;11.10;99.90
21035;DHT22;10676;50.848;3.272;2023-03-23T05:20:41;11.00;99.90
21035;DHT22;10676;50.848;3.272;2023-03-23T05:23:08;10.80;99.90
21035;DHT22;10676;50.848;3.272;2023-03-23T05:25:34;10.60;99.90
21035;DHT22;10676;50.848;3.272;2023-03-23T05:28:08;10.40;99.90
21035;DHT22;10676;50.848;3.272;2023-03-23T05:30:36;10.30;99.90
21035;DHT22;10676;50.848;3.272;2023-03-23T05:33:03;10.20;99.90
21035;DHT22;10676;50.848;3.272;2023-03-23T05:35:29;10.10;99.90
21035;DHT22;10676;50.848;3.272;2023-03-23T05:37:55;10.10;99.90
21035;DHT22;10676;50.848;3.272;2023-03-23T05:40:22;10.10;99.90
21035;DHT22;10676;50.848;3.272;2023-03-23T05:42:51;10.00;99.90
21035;DHT22;10676;50.848;3.272;2023-03-23T05:45:17;10.00;99.90
21035;DHT22;10676;50.848;3.272;2023-03-23T05:47:44;9.90;99.90
21035;DHT22;10676;50.848;3.272;2023-03-23T05:50:11;9.90;99.90
21035;DHT22;10676;50.848;3.272;2023-03-23T05:52:38;9.90;99.90
21035;DHT22;10676;50.848;3.272;2023-03-23T05:55:05;10.00;99.90
21035;DHT22;10676;50.848;3.272;2023-03-23T05:57:31;10.00;99.90
21035;DHT22;10676;50.848;3.272;2023-03-23T05:59:57;10.00;99.90
21035;DHT22;10676;50.848;3.272;2023-03-23T06:02:24;10.00;99.90
21035;DHT22;10676;50.848;3.272;2023-03-23T06:04:53;9.90;99.90
21035;DHT22;10676;50.848;3.272;2023-03-23T06:07:23;10.00;99.90
21035;DHT22;10676;50.848;3.272;2023-03-23T06:09:50;10.00;99.90
21035;DHT22;10676;50.848;3.272;2023-03-23T06:12:16;10.00;99.90
21035;DHT22;10676;50.848;3.272;2023-03-23T06:14:46;10.00;99.90
21035;DHT22;10676;50.848;3.272;2023-03-23T06:17:12;10.10;99.90
21035;DHT22;10676;50.848;3.272;2023-03-23T06:19:38;10.10;99.90
21035;DHT22;10676;50.848;3.272;2023-03-23T06:22:03;10.20;99.90
21035;DHT22;10676;50.848;3.272;2023-03-23T06:24:30;10.20;99.90
21035;DHT22;10676;50.848;3.272;2023-03-23T06:26:57;10.20;99.90
21035;DHT22;10676;50.848;3.272;2023-03-23T06:29:24;10.20;99.90
21035;DHT22;10676;50.848;3.272;2023-03-23T06:31:54;10.30;99.90
21035;DHT22;10676;50.848;3.272;2023-03-23T06:34:21;10.30;99.90
21035;DHT22;10676;50.848;3.272;2023-03-23T06:36:47;10.30;99.90
21035;DHT22;10676;50.848;3.272;2023-03-23T06:39:13;10.30;99.90
21035;DHT22;10676;50.848;3.272;2023-03-23T06:41:39;10.30;99.90
21035;DHT22;10676;50.848;3.272;2023-03-23T06:44:05;10.30;99.90
21035;DHT22;10676;50.848;3.272;2023-03-23T06:46:31;10.40;99.90
21035;DHT22;10676;50.848;3.272;2023-03-23T06:49:00;10.40;99.90
21035;DHT22;10676;50.848;3.272;2023-03-23T06:51:26;10.50;99.90
21035;DHT22;10676;50.848;3.272;2023-03-23T06:53:51;10.60;99.90
21035;DHT22;10676;50.848;3.272;2023-03-23T06:56:17;10.60;99.90
21035;DHT22;10676;50.848;3.272;2023-03-23T06:58:43;10.60;99.90
21035;DHT22;10676;50.848;3.272;2023-03-23T07:01:11;10.60;99.90
21035;DHT22;10676;50.848;3.272;2023-03-23T07:03:38;10.60;99.90
21035;DHT22;10676;50.848;3.272;2023-03-23T07:06:04;10.60;99.90
21035;DHT22;10676;50.848;3.272;2023-03-23T07:08:30;10.50;99.90
21035;DHT22;10676;50.848;3.272;2023-03-23T07:10:56;10.50;99.90
21035;DHT22;10676;50.848;3.272;2023-03-23T07:13:22;10.50;99.90
21035;DHT22;10676;50.848;3.272;2023-03-23T07:15:48;10.50;99.90
21035;DHT22;10676;50.848;3.272;2023-03-23T07:18:15;10.50;99.90
21035;DHT22;10676;50.848;3.272;2023-03-23T07:20:40;10.50;99.90
21035;DHT22;10676;50.848;3.272;2023-03-23T07:23:06;10.40;99.90
21035;DHT22;10676;50.848;3.272;2023-03-23T07:25:34;10.40;99.90
21035;DHT22;10676;50.848;3.272;2023-03-23T07:28:00;10.40;99.90
21035;DHT22;10676;50.848;3.272;2023-03-23T07:30:26;10.50;99.90
21035;DHT22;10676;50.848;3.272;2023-03-23T07:32:54;10.50;99.90
21035;DHT22;10676;50.848;3.272;2023-03-23T07:35:20;10.70;99.90
21035;DHT22;10676;50.848;3.272;2023-03-23T07:37:46;11.10;99.90
21035;DHT22;10676;50.848;3.272;2023-03-23T07:40:14;11.30;99.90
21035;DHT22;10676;50.848;3.272;2023-03-23T07:42:45;11.40;99.90
21035;DHT22;10676;50.848;3.272;2023-03-23T07:45:12;11.50;99.90
21035;DHT22;10676;50.848;3.272;2023-03-23T07:47:39;11.70;99.90
21035;DHT22;10676;50.848;3.272;2023-03-23T07:50:06;12.10;99.90
21035;DHT22;10676;50.848;3.272;2023-03-23T07:52:34;12.50;99.90
21035;DHT22;10676;50.848;3.272;2023-03-23T07:55:00;12.90;99.90
21035;DHT22;10676;50.848;3.272;2023-03-23T07:57:29;13.30;99.90
21035;DHT22;10676;50.848;3.272;2023-03-23T07:59:55;14.00;99.90
21035;DHT22;10676;50.848;3.272;2023-03-23T08:02:22;14.90;99.90
21035;DHT22;10676;50.848;3.272;2023-03-23T08:04:48;15.60;99.90
21035;DHT22;10676;50.848;3.272;2023-03-23T08:07:14;16.30;99.90
21035;DHT22;10676;50.848;3.272;2023-03-23T08:09:42;17.00;99.90
21035;DHT22;10676;50.848;3.272;2023-03-23T08:12:08;17.90;99.90
21035;DHT22;10676;50.848;3.272;2023-03-23T08:14:33;18.90;99.90
21035;DHT22;10676;50.848;3.272;2023-03-23T08:16:59;19.70;99.90
21035;DHT22;10676;50.848;3.272;2023-03-23T08:19:25;20.30;99.90
21035;DHT22;10676;50.848;3.272;2023-03-23T08:21:52;20.80;99.90
21035;DHT22;10676;50.848;3.272;2023-03-23T08:24:19;21.00;99.90
21035;DHT22;10676;50.848;3.272;2023-03-23T08:26:45;20.90;99.90
21035;DHT22;10676;50.848;3.272;2023-03-23T08:29:10;21.00;99.90
21035;DHT22;10676;50.848;3.272;2023-03-23T08:31:38;21.30;99.90
21035;DHT22;10676;50.848;3.272;2023-03-23T08:34:04;21.20;99.90
21035;DHT22;10676;50.848;3.272;2023-03-23T08:36:32;20.70;99.90
21035;DHT22;10676;50.848;3.272;2023-03-23T08:38:57;20.20;99.90
21035;DHT22;10676;50.848;3.272;2023-03-23T08:41:23;20.20;99.90
21035;DHT22;10676;50.848;3.272;2023-03-23T08:43:49;20.60;99.90
21035;DHT22;10676;50.848;3.272;2023-03-23T08:46:15;21.20;99.90
21035;DHT22;10676;50.848;3.272;2023-03-23T08:48:42;21.50;99.90
21035;DHT22;10676;50.848;3.272;2023-03-23T08:51:09;21.70;99.90
21035;DHT22;10676;50.848;3.272;2023-03-23T08:53:35;21.60;99.90
21035;DHT22;10676;50.848;3.272;2023-03-23T08:56:06;21.60;99.90
21035;DHT22;10676;50.848;3.272;2023-03-23T08:58:37;21.70;99.90
21035;DHT22;10676;50.848;3.272;2023-03-23T09:01:04;21.60;99.90
21035;DHT22;10676;50.848;3.272;2023-03-23T09:03:32;21.70;99.90
21035;DHT22;10676;50.848;3.272;2023-03-23T09:05:59;21.60;99.90
21035;DHT22;10676;50.848;3.272;2023-03-23T09:08:26;21.70;99.90
21035;DHT22;10676;50.848;3.272;2023-03-23T09:10:55;22.20;99.90
21035;DHT22;10676;50.848;3.272;2023-03-23T09:13:21;22.60;99.90
21035;DHT22;10676;50.848;3.272;2023-03-23T09:15:46;22.80;99.90
21035;DHT22;10676;50.848;3.272;2023-03-23T09:18:13;22.70;99.90
21035;DHT22;10676;50.848;3.272;2023-03-23T09:20:39;22.80;99.90
21035;DHT22;10676;50.848;3.272;2023-03-23T09:23:05;23.30;99.90
21035;DHT22;10676;50.848;3.272;2023-03-23T09:25:31;23.50;99.90
21035;DHT22;10676;50.848;3.272;2023-03-23T09:27:58;23.70;99.90
21035;DHT22;10676;50.848;3.272;2023-03-23T09:30:27;23.80;99.90
21035;DHT22;10676;50.848;3.272;2023-03-23T09:32:53;23.40;99.90
21035;DHT22;10676;50.848;3.272;2023-03-23T09:35:20;22.40;99.90
21035;DHT22;10676;50.848;3.272;2023-03-23T09:37:48;21.80;99.90
21035;DHT22;10676;50.848;3.272;2023-03-23T09:40:20;21.20;99.90
21035;DHT22;10676;50.848;3.272;2023-03-23T09:48:26;20.80;99.90
21035;DHT22;10676;50.848;3.272;2023-03-23T09:51:20;20.70;99.90
21035;DHT22;10676;50.848;3.272;2023-03-23T09:53:45;20.60;99.90
21035;DHT22;10676;50.848;3.272;2023-03-23T09:56:15;20.60;99.90
21035;DHT22;10676;50.848;3.272;2023-03-23T09:58:46;20.40;99.90
21035;DHT22;10676;50.848;3.272;2023-03-23T10:01:42;20.00;99.90
21035;DHT22;10676;50.848;3.272;2023-03-23T10:07:10;20.00;99.90
21035;DHT22;10676;50.848;3.272;2023-03-23T10:09:37;20.90;99.90
21035;DHT22;10676;50.848;3.272;2023-03-23T10:17:37;22.40;99.90
21035;DHT22;10676;50.848;3.272;2023-03-23T10:25:19;21.70;99.90
21035;DHT22;10676;50.848;3.272;2023-03-23T10:28:08;21.50;99.90
21035;DHT22;10676;50.848;3.272;2023-03-23T10:30:45;21.70;99.90
21035;DHT22;10676;50.848;3.272;2023-03-23T10:33:25;22.00;99.90
21035;DHT22;10676;50.848;3.272;2023-03-23T10:36:00;22.00;99.90
21035;DHT22;10676;50.848;3.272;2023-03-23T10:38:37;21.90;99.90
21035;DHT22;10676;50.848;3.272;2023-03-23T10:41:11;21.70;99.90
21035;DHT22;10676;50.848;3.272;2023-03-23T10:43:38;21.30;99.90
21035;DHT22;10676;50.848;3.272;2023-03-23T10:49:09;20.60;99.90
21035;DHT22;10676;50.848;3.272;2023-03-23T10:51:41;20.70;99.90
21035;DHT22;10676;50.848;3.272;2023-03-23T10:54:07;21.00;99.90
21035;DHT22;10676;50.848;3.272;2023-03-23T10:56:42;21.30;99.90
21035;DHT22;10676;50.848;3.272;2023-03-23T10:59:19;21.40;99.90
21035;DHT22;10676;50.848;3.272;2023-03-23T11:01:50;21.20;99.90
21035;DHT22;10676;50.848;3.272;2023-03-23T11:04:18;20.60;99.90
21035;DHT22;10676;50.848;3.272;2023-03-23T11:06:46;19.80;99.90
21035;DHT22;10676;50.848;3.272;2023-03-23T11:09:15;18.80;99.90
21035;DHT22;10676;50.848;3.272;2023-03-23T11:11:52;18.00;99.90
21035;DHT22;10676;50.848;3.272;2023-03-23T11:14:32;17.40;99.90
21035;DHT22;10676;50.848;3.272;2023-03-23T11:17:02;17.20;99.90
21035;DHT22;10676;50.848;3.272;2023-03-23T11:19:34;17.10;99.90
21035;DHT22;10676;50.848;3.272;2023-03-23T11:24:32;17.30;99.90
21035;DHT22;10676;50.848;3.272;2023-03-23T11:26:59;17.40;99.90
21035;DHT22;10676;50.848;3.272;2023-03-23T11:29:27;17.40;99.90
21035;DHT22;10676;50.848;3.272;2023-03-23T11:32:06;17.40;99.90
21035;DHT22;10676;50.848;3.272;2023-03-23T11:34:40;17.30;99.90
21035;DHT22;10676;50.848;3.272;2023-03-23T11:37:40;17.20;99.90
21035;DHT22;10676;50.848;3.272;2023-03-23T11:42:41;17.30;99.90
21035;DHT22;10676;50.848;3.272;2023-03-23T11:45:39;17.40;99.90
21035;DHT22;10676;50.848;3.272;2023-03-23T11:51:13;17.30;99.90
21035;DHT22;10676;50.848;3.272;2023-03-23T11:56:53;17.30;99.90
21035;DHT22;10676;50.848;3.272;2023-03-23T11:59:29;17.30;99.90
21035;DHT22;10676;50.848;3.272;2023-03-23T12:02:07;17.30;99.90
21035;DHT22;10676;50.848;3.272;2023-03-23T12:04:56;17.20;99.90
21035;DHT22;10676;50.848;3.272;2023-03-23T12:13:45;15.70;99.90
21035;DHT22;10676;50.848;3.272;2023-03-23T12:24:52;15.80;99.90
21035;DHT22;10676;50.848;3.272;2023-03-23T12:27:25;15.80;99.90
21035;DHT22;10676;50.848;3.272;2023-03-23T12:30:01;15.80;99.90
21035;DHT22;10676;50.848;3.272;2023-03-23T12:37:51;16.80;99.90
21035;DHT22;10676;50.848;3.272;2023-03-23T12:43:26;17.00;99.90
21035;DHT22;10676;50.848;3.272;2023-03-23T12:49:00;17.80;99.90
21035;DHT22;10676;50.848;3.272;2023-03-23T12:51:43;18.30;99.90
21035;DHT22;10676;50.848;3.272;2023-03-23T12:54:29;18.50;99.90
21035;DHT22;10676;50.848;3.272;2023-03-23T12:57:25;18.40;99.90
21035;DHT22;10676;50.848;3.272;2023-03-23T13:00:16;18.00;99.90
21035;DHT22;10676;50.848;3.272;2023-03-23T13:03:07;17.30;99.90
21035;DHT22;10676;50.848;3.272;2023-03-23T13:05:52;16.60;99.90
21035;DHT22;10676;50.848;3.272;2023-03-23T13:08:32;15.90;99.90
21035;DHT22;10676;50.848;3.272;2023-03-23T13:11:03;15.40;99.90
21035;DHT22;10676;50.848;3.272;2023-03-23T13:13:49;15.30;99.90
21035;DHT22;10676;50.848;3.272;2023-03-23T13:16:55;15.40;99.90
21035;DHT22;10676;50.848;3.272;2023-03-23T13:22:11;15.70;99.90
21035;DHT22;10676;50.848;3.272;2023-03-23T13:24:56;15.70;99.90
21035;DHT22;10676;50.848;3.272;2023-03-23T13:27:27;15.80;99.90
21035;DHT22;10676;50.848;3.272;2023-03-23T13:29:57;16.10;99.90
21035;DHT22;10676;50.848;3.272;2023-03-23T13:32:34;16.50;99.90
21035;DHT22;10676;50.848;3.272;2023-03-23T13:35:03;17.00;99.90
21035;DHT22;10676;50.848;3.272;2023-03-23T13:37:29;17.60;99.90
21035;DHT22;10676;50.848;3.272;2023-03-23T13:42:52;18.40;99.90
21035;DHT22;10676;50.848;3.272;2023-03-23T13:47:47;18.90;99.90
21035;DHT22;10676;50.848;3.272;2023-03-23T13:58:27;18.70;99.90
21035;DHT22;10676;50.848;3.272;2023-03-23T14:03:45;18.40;99.90
21035;DHT22;10676;50.848;3.272;2023-03-23T14:06:23;18.20;99.90
21035;DHT22;10676;50.848;3.272;2023-03-23T14:08:55;18.00;99.90
21035;DHT22;10676;50.848;3.272;2023-03-23T14:14:32;18.10;99.90
21035;DHT22;10676;50.848;3.272;2023-03-23T14:17:12;18.20;99.90
21035;DHT22;10676;50.848;3.272;2023-03-23T14:19:40;18.50;99.90
21035;DHT22;10676;50.848;3.272;2023-03-23T14:22:22;18.70;99.90
21035;DHT22;10676;50.848;3.272;2023-03-23T14:24:48;19.00;99.90
21035;DHT22;10676;50.848;3.272;2023-03-23T14:29:42;19.50;99.90
21035;DHT22;10676;50.848;3.272;2023-03-23T14:32:13;19.70;99.90
21035;DHT22;10676;50.848;3.272;2023-03-23T14:34:40;19.80;99.90
21035;DHT22;10676;50.848;3.272;2023-03-23T14:37:11;19.80;99.90
21035;DHT22;10676;50.848;3.272;2023-03-23T14:39:37;20.00;99.90
21035;DHT22;10676;50.848;3.272;2023-03-23T14:42:05;20.40;99.90
21035;DHT22;10676;50.848;3.272;2023-03-23T14:44:35;20.90;99.90
21035;DHT22;10676;50.848;3.272;2023-03-23T14:47:05;21.40;99.90
21035;DHT22;10676;50.848;3.272;2023-03-23T14:49:37;21.80;99.90
21035;DHT22;10676;50.848;3.272;2023-03-23T14:52:15;22.00;99.90
21035;DHT22;10676;50.848;3.272;2023-03-23T14:54:42;22.10;99.90
21035;DHT22;10676;50.848;3.272;2023-03-23T14:57:15;22.10;99.90
21035;DHT22;10676;50.848;3.272;2023-03-23T14:59:47;22.00;99.90
21035;DHT22;10676;50.848;3.272;2023-03-23T15:02:23;21.70;99.90
21035;DHT22;10676;50.848;3.272;2023-03-23T15:04:54;21.40;99.90
21035;DHT22;10676;50.848;3.272;2023-03-23T15:07:22;21.10;99.90
21035;DHT22;10676;50.848;3.272;2023-03-23T15:09:50;20.80;99.90
21035;DHT22;10676;50.848;3.272;2023-03-23T15:12:35;20.50;99.90
21035;DHT22;10676;50.848;3.272;2023-03-23T15:15:26;20.40;99.90
21035;DHT22;10676;50.848;3.272;2023-03-23T15:17:53;20.30;99.90
21035;DHT22;10676;50.848;3.272;2023-03-23T15:20:23;20.20;99.90
21035;DHT22;10676;50.848;3.272;2023-03-23T15:22:50;20.10;99.90
21035;DHT22;10676;50.848;3.272;2023-03-23T15:27:53;19.60;99.90
21035;DHT22;10676;50.848;3.272;2023-03-23T15:32:52;18.70;99.90
21035;DHT22;10676;50.848;3.272;2023-03-23T15:35:20;18.40;99.90
21035;DHT22;10676;50.848;3.272;2023-03-23T15:40:24;17.70;99.90
21035;DHT22;10676;50.848;3.272;2023-03-23T15:43:05;17.50;99.90
21035;DHT22;10676;50.848;3.272;2023-03-23T15:45:31;17.30;99.90
21035;DHT22;10676;50.848;3.272;2023-03-23T15:48:11;17.30;99.90
21035;DHT22;10676;50.848;3.272;2023-03-23T15:50:40;17.40;99.90
21035;DHT22;10676;50.848;3.272;2023-03-23T15:55:55;18.10;99.90
21035;DHT22;10676;50.848;3.272;2023-03-23T15:58:23;18.40;99.90
21035;DHT22;10676;50.848;3.272;2023-03-23T16:00:50;18.50;99.90
21035;DHT22;10676;50.848;3.272;2023-03-23T16:03:22;18.50;99.90
21035;DHT22;10676;50.848;3.272;2023-03-23T16:05:50;18.30;99.90
21035;DHT22;10676;50.848;3.272;2023-03-23T16:08:15;18.20;99.90
21035;DHT22;10676;50.848;3.272;2023-03-23T16:10:42;18.10;99.90
21035;DHT22;10676;50.848;3.272;2023-03-23T16:13:08;18.00;99.90
21035;DHT22;10676;50.848;3.272;2023-03-23T16:15:33;17.90;99.90
21035;DHT22;10676;50.848;3.272;2023-03-23T16:18:00;17.80;99.90
21035;DHT22;10676;50.848;3.272;2023-03-23T16:20:28;17.70;99.90
21035;DHT22;10676;50.848;3.272;2023-03-23T16:22:54;17.70;99.90
21035;DHT22;10676;50.848;3.272;2023-03-23T16:25:22;17.60;99.90
21035;DHT22;10676;50.848;3.272;2023-03-23T16:27:48;17.50;99.90
21035;DHT22;10676;50.848;3.272;2023-03-23T16:30:21;17.40;99.90
21035;DHT22;10676;50.848;3.272;2023-03-23T16:32:47;17.40;99.90
21035;DHT22;10676;50.848;3.272;2023-03-23T16:35:14;17.30;99.90
21035;DHT22;10676;50.848;3.272;2023-03-23T16:37:55;17.30;99.90
21035;DHT22;10676;50.848;3.272;2023-03-23T16:40:30;17.30;99.90
21035;DHT22;10676;50.848;3.272;2023-03-23T16:42:58;17.40;99.90
21035;DHT22;10676;50.848;3.272;2023-03-23T16:45:24;17.40;99.90
21035;DHT22;10676;50.848;3.272;2023-03-23T16:47:51;17.30;99.90
21035;DHT22;10676;50.848;3.272;2023-03-23T16:50:20;17.40;99.90
21035;DHT22;10676;50.848;3.272;2023-03-23T16:52:46;17.40;99.90
21035;DHT22;10676;50.848;3.272;2023-03-23T16:55:16;17.40;99.90
21035;DHT22;10676;50.848;3.272;2023-03-23T16:57:42;17.40;99.90
21035;DHT22;10676;50.848;3.272;2023-03-23T17:00:11;17.40;99.90
21035;DHT22;10676;50.848;3.272;2023-03-23T17:02:42;17.40;99.90
21035;DHT22;10676;50.848;3.272;2023-03-23T17:05:10;17.40;99.90
21035;DHT22;10676;50.848;3.272;2023-03-23T17:07:37;17.40;99.90
21035;DHT22;10676;50.848;3.272;2023-03-23T17:10:03;17.40;99.90
21035;DHT22;10676;50.848;3.272;2023-03-23T17:12:30;17.40;99.90
21035;DHT22;10676;50.848;3.272;2023-03-23T17:14:56;17.30;99.90
21035;DHT22;10676;50.848;3.272;2023-03-23T17:17:22;17.30;99.90
21035;DHT22;10676;50.848;3.272;2023-03-23T17:19:48;17.30;99.90
21035;DHT22;10676;50.848;3.272;2023-03-23T17:22:14;17.20;99.90
21035;DHT22;10676;50.848;3.272;2023-03-23T17:24:43;17.10;99.90
21035;DHT22;10676;50.848;3.272;2023-03-23T17:27:09;17.00;99.90
21035;DHT22;10676;50.848;3.272;2023-03-23T17:29:35;16.90;99.90
21035;DHT22;10676;50.848;3.272;2023-03-23T17:32:01;16.90;99.90
21035;DHT22;10676;50.848;3.272;2023-03-23T17:34:27;16.70;99.90
21035;DHT22;10676;50.848;3.272;2023-03-23T17:36:52;16.60;99.90
21035;DHT22;10676;50.848;3.272;2023-03-23T17:39:18;16.50;99.90
21035;DHT22;10676;50.848;3.272;2023-03-23T17:41:44;16.40;99.90
21035;DHT22;10676;50.848;3.272;2023-03-23T17:44:10;16.30;99.90